Time;durP1;ratioP1;P1;durP2;ratioP2;P2;SDS_P1;SDS_P2;PMS_P1;PMS_P2;Temp;Humidity;BMP_temperature;BMP_pressure;BME280_temperature;BME280_humidity;BME280_pressure;Samples;Min_cycle;Max_cycle;Signal;HPM_P1;HPM_P2
2023/11/02 00:02:26;;;;;;;12.40;2.85;;;10.10;99.90;;;;;;5002742;28;20056;-75
2023/11/02 00:04:54;;;;;;;14.20;1.63;;;10.20;99.90;;;;;;4987191;28;20049;-75
2023/11/02 00:07:21;;;;;;;8.48;1.85;;;10.30;99.90;;;;;;4993184;28;20077;-75
2023/11/02 00:09:49;;;;;;;15.77;2.08;;;10.30;99.90;;;;;;4992058;28;20047;-75
2023/11/02 00:12:19;;;;;;;9.98;1.55;;;10.40;99.90;;;;;;4998427;28;20106;-76
2023/11/02 00:14:51;;;;;;;13.10;2.25;;;10.40;99.90;;;;;;4962012;28;20081;-75
2023/11/02 00:17:38;;;;;;;17.45;2.17;;;10.40;99.90;;;;;;4999539;28;20047;-75
2023/11/02 00:20:07;;;;;;;19.38;2.90;;;10.50;99.90;;;;;;4971088;28;20053;-76
2023/11/02 00:22:35;;;;;;;14.52;2.75;;;10.50;99.90;;;;;;4994995;28;20054;-75
2023/11/02 00:25:02;;;;;;;10.65;2.00;;;10.50;99.90;;;;;;4994676;28;20042;-75
2023/11/02 00:27:32;;;;;;;13.77;2.42;;;10.50;99.90;;;;;;4999443;28;20100;-77
2023/11/02 00:29:59;;;;;;;19.05;2.35;;;10.60;99.90;;;;;;4994872;28;20157;-76
2023/11/02 00:32:26;;;;;;;17.40;4.47;;;10.60;99.90;;;;;;4993405;28;20046;-75
2023/11/02 00:34:52;;;;;;;12.77;1.80;;;10.60;99.90;;;;;;4972149;28;20055;-76
2023/11/02 00:37:19;;;;;;;17.13;2.03;;;10.60;99.90;;;;;;5001128;28;20101;-76
2023/11/02 00:39:46;;;;;;;16.55;2.83;;;10.70;99.90;;;;;;4991863;28;20078;-75
2023/11/02 00:42:14;;;;;;;12.93;2.10;;;10.70;99.90;;;;;;4995780;28;20053;-75
2023/11/02 00:44:45;;;;;;;12.23;2.80;;;10.70;99.90;;;;;;4982017;28;20046;-76
2023/11/02 00:47:14;;;;;;;14.02;1.80;;;10.70;99.90;;;;;;4988711;28;20050;-75
2023/11/02 00:49:41;;;;;;;18.67;1.80;;;10.70;99.90;;;;;;5007821;28;20108;-76
2023/11/02 00:52:08;;;;;;;13.88;3.45;;;10.80;99.90;;;;;;5003084;28;20054;-75
2023/11/02 00:54:47;;;;;;;15.98;2.22;;;10.80;99.90;;;;;;4997415;28;20046;-76
2023/11/02 00:57:14;;;;;;;10.57;1.85;;;10.80;99.90;;;;;;4995381;28;20576;-75
2023/11/02 00:59:41;;;;;;;8.07;2.33;;;10.80;99.90;;;;;;5001468;28;20049;-76
2023/11/02 01:02:08;;;;;;;8.55;1.55;;;10.80;99.90;;;;;;4999803;28;20054;-76
2023/11/02 01:04:41;;;;;;;12.45;1.67;;;10.80;99.90;;;;;;5000331;28;20046;-75
2023/11/02 01:07:08;;;;;;;12.15;1.85;;;10.90;99.90;;;;;;4991317;28;20477;-75
2023/11/02 01:09:47;;;;;;;11.63;2.92;;;10.80;99.90;;;;;;4992707;28;20501;-75
2023/11/02 01:12:32;;;;;;;9.27;1.77;;;10.90;99.90;;;;;;4986290;28;20051;-76
2023/11/02 01:15:00;;;;;;;17.92;2.95;;;10.90;99.90;;;;;;4984589;28;20207;-77
2023/11/02 01:17:41;;;;;;;12.77;2.53;;;10.90;99.90;;;;;;4984725;28;20082;-77
2023/11/02 01:20:46;;;;;;;12.27;2.20;;;10.90;99.90;;;;;;5004011;28;20152;-76
2023/11/02 01:23:16;;;;;;;8.32;2.13;;;10.90;99.90;;;;;;4998503;28;20057;-77
2023/11/02 01:25:49;;;;;;;8.20;2.28;;;10.90;99.90;;;;;;4999529;28;20056;-77
2023/11/02 01:28:19;;;;;;;12.43;2.37;;;10.90;99.90;;;;;;5007870;28;20064;-77
2023/11/02 01:31:01;;;;;;;11.90;1.88;;;10.90;99.90;;;;;;5015816;28;20329;-76
2023/11/02 01:33:34;;;;;;;14.27;2.87;;;11.00;99.90;;;;;;4663595;28;10000454;-73
2023/11/02 01:36:02;;;;;;;14.60;1.85;;;11.00;99.90;;;;;;5015918;28;20308;-75
2023/11/02 01:38:30;;;;;;;18.95;1.98;;;10.90;99.90;;;;;;5011484;28;20131;-75
2023/11/02 01:41:14;;;;;;;13.73;2.40;;;10.90;99.90;;;;;;5018655;28;20050;-76
2023/11/02 01:44:22;;;;;;;11.43;1.85;;;11.00;99.90;;;;;;5018443;28;20034;-77
2023/11/02 01:47:05;;;;;;;11.32;2.10;;;11.00;99.90;;;;;;4999795;28;20057;-77
2023/11/02 01:49:49;;;;;;;9.73;1.77;;;11.00;99.90;;;;;;4978059;28;20112;-75
2023/11/02 01:52:20;;;;;;;15.43;4.07;;;11.00;99.90;;;;;;4995838;28;20086;-77
2023/11/02 01:54:53;;;;;;;17.10;1.98;;;11.00;99.90;;;;;;4992518;28;20034;-76
2023/11/02 01:57:40;;;;;;;9.40;2.42;;;11.00;99.90;;;;;;4992926;28;20548;-75
2023/11/02 02:00:07;;;;;;;11.25;1.83;;;11.00;99.90;;;;;;4994538;28;20058;-76
2023/11/02 02:03:00;;;;;;;9.95;2.00;;;11.00;99.90;;;;;;4994316;28;20058;-76
2023/11/02 02:05:34;;;;;;;13.23;2.28;;;11.00;99.90;;;;;;4998247;28;20050;-76
2023/11/02 02:08:10;;;;;;;19.17;2.95;;;11.10;99.90;;;;;;4999778;28;20320;-76
2023/11/02 02:11:08;;;;;;;24.58;2.80;;;11.10;99.90;;;;;;5006909;28;20097;-76
2023/11/02 02:13:59;;;;;;;20.40;2.65;;;11.10;99.90;;;;;;4997704;28;20049;-75
2023/11/02 02:16:51;;;;;;;16.60;3.88;;;11.10;99.90;;;;;;5000868;28;20042;-77
2023/11/02 02:19:37;;;;;;;16.73;2.65;;;11.10;99.90;;;;;;4991009;28;20038;-76
2023/11/02 02:22:09;;;;;;;13.25;2.00;;;11.10;99.90;;;;;;4997759;28;20124;-79
2023/11/02 02:24:45;;;;;;;12.00;2.20;;;11.10;99.90;;;;;;4994399;28;20077;-77
2023/11/02 02:27:43;;;;;;;16.38;2.72;;;11.10;99.90;;;;;;4997852;28;20566;-77
2023/11/02 02:30:40;;;;;;;17.17;1.98;;;11.20;99.90;;;;;;5008029;28;20049;-76
2023/11/02 02:33:31;;;;;;;10.20;2.13;;;11.20;99.90;;;;;;4972548;28;20050;-76
2023/11/02 02:36:24;;;;;;;9.45;2.25;;;11.20;99.90;;;;;;4993767;28;20054;-76
2023/11/02 02:39:04;;;;;;;15.65;3.28;;;11.20;99.90;;;;;;5006872;28;20400;-73
2023/11/02 02:41:39;;;;;;;14.52;2.67;;;11.10;99.90;;;;;;5005638;28;20077;-76
2023/11/02 02:44:09;;;;;;;14.45;3.38;;;11.20;99.90;;;;;;5003589;28;20130;-76
2023/11/02 02:46:38;;;;;;;20.27;3.63;;;11.20;99.90;;;;;;5006915;28;20046;-76
2023/11/02 02:49:04;;;;;;;16.15;3.25;;;11.20;99.90;;;;;;5004977;28;20073;-78
2023/11/02 02:51:34;;;;;;;24.45;3.53;;;11.30;99.90;;;;;;5009093;28;20068;-79
2023/11/02 02:54:06;;;;;;;14.55;2.70;;;11.30;99.90;;;;;;4997519;28;20108;-77
2023/11/02 02:56:35;;;;;;;21.88;2.78;;;11.30;99.90;;;;;;5004727;28;20049;-78
2023/11/02 02:59:03;;;;;;;18.40;2.72;;;11.30;99.90;;;;;;5010199;28;20050;-77
2023/11/02 03:01:35;;;;;;;12.25;2.22;;;11.30;99.90;;;;;;5006937;28;20046;-76
2023/11/02 03:04:02;;;;;;;7.25;1.00;;;11.20;99.90;;;;;;5011732;28;20042;-76
2023/11/02 03:06:30;;;;;;;4.55;0.73;;;10.80;99.90;;;;;;5018841;28;20100;-77
2023/11/02 03:08:56;;;;;;;4.93;0.73;;;10.50;99.90;;;;;;5026892;28;20049;-77
2023/11/02 03:11:23;;;;;;;2.03;0.40;;;10.10;99.90;;;;;;5021927;28;20079;-75
2023/11/02 03:13:52;;;;;;;3.33;0.60;;;9.90;99.90;;;;;;5001769;28;20410;-75
2023/11/02 03:16:19;;;;;;;4.45;0.70;;;9.70;99.90;;;;;;5001888;28;20058;-76
2023/11/02 03:18:47;;;;;;;7.85;1.20;;;9.70;99.90;;;;;;5000901;28;20295;-77
2023/11/02 03:21:14;;;;;;;5.53;1.98;;;9.70;99.90;;;;;;5007274;28;20049;-77
2023/11/02 03:23:48;;;;;;;7.80;1.45;;;9.80;99.90;;;;;;4995759;28;20060;-76
2023/11/02 03:26:27;;;;;;;11.82;1.70;;;9.80;99.90;;;;;;4980331;28;20062;-75
2023/11/02 03:29:05;;;;;;;7.85;1.40;;;9.90;99.90;;;;;;4998549;28;20108;-75
2023/11/02 03:31:43;;;;;;;5.45;0.88;;;10.00;99.90;;;;;;5001671;28;20513;-74
2023/11/02 03:34:37;;;;;;;7.80;2.17;;;10.10;99.90;;;;;;4998687;28;20042;-75
2023/11/02 03:37:13;;;;;;;10.60;1.63;;;10.10;99.90;;;;;;5005700;28;20135;-76
2023/11/02 03:39:51;;;;;;;12.90;1.38;;;10.20;99.90;;;;;;4979723;28;20050;-74
2023/11/02 03:42:52;;;;;;;9.57;1.35;;;10.30;99.90;;;;;;5005742;28;20057;-75
2023/11/02 03:45:38;;;;;;;10.25;1.58;;;10.30;99.90;;;;;;5012309;28;20050;-76
2023/11/02 03:48:11;;;;;;;8.60;2.50;;;10.30;99.90;;;;;;5004109;28;20050;-76
2023/11/02 03:50:45;;;;;;;7.30;0.95;;;10.20;99.90;;;;;;4991372;28;20129;-76
2023/11/02 03:53:29;;;;;;;;;;;10.20;99.90;;;;;;5001149;28;20050;-75
2023/11/02 03:56:14;;;;;;;6.45;0.85;;;10.10;99.90;;;;;;4989865;28;19925;-76
2023/11/02 03:59:08;;;;;;;3.40;0.60;;;10.10;99.90;;;;;;4989801;28;20062;-76
2023/11/02 04:02:01;;;;;;;1.73;0.40;;;10.00;99.90;;;;;;5008163;28;20109;-77
2023/11/02 04:04:41;;;;;;;3.65;0.60;;;9.90;99.90;;;;;;4994434;28;20100;-76
2023/11/02 04:07:23;;;;;;;2.13;0.50;;;9.90;99.90;;;;;;4989999;28;20045;-76
2023/11/02 04:09:53;;;;;;;1.95;0.57;;;9.80;99.90;;;;;;5000671;28;20077;-75
2023/11/02 04:12:27;;;;;;;3.50;0.95;;;9.80;99.90;;;;;;4992699;28;20046;-75
2023/11/02 04:14:55;;;;;;;5.90;0.77;;;9.80;99.90;;;;;;4998224;28;20054;-75
2023/11/02 04:17:22;;;;;;;1.67;0.60;;;9.70;99.90;;;;;;5004099;28;20054;-76
2023/11/02 04:19:48;;;;;;;3.33;0.60;;;9.70;99.90;;;;;;5000354;28;20097;-75
2023/11/02 04:22:15;;;;;;;3.80;0.73;;;9.60;99.90;;;;;;5008657;28;20073;-78
2023/11/02 04:24:42;;;;;;;6.68;1.10;;;9.70;99.90;;;;;;5006046;28;20555;-76
2023/11/02 04:27:09;;;;;;;4.97;1.05;;;9.60;99.90;;;;;;4996574;28;20081;-76
2023/11/02 04:29:36;;;;;;;6.18;2.00;;;9.70;99.90;;;;;;4996023;28;20142;-76
2023/11/02 04:32:02;;;;;;;4.75;0.98;;;9.70;99.90;;;;;;5003596;28;20358;-75
2023/11/02 04:34:29;;;;;;;5.88;1.05;;;9.70;99.90;;;;;;5004588;28;20452;-75
2023/11/02 04:36:56;;;;;;;4.90;1.63;;;9.70;99.90;;;;;;4993581;28;20042;-76
2023/11/02 04:39:23;;;;;;;4.63;0.90;;;9.70;99.90;;;;;;5010813;28;20049;-77
2023/11/02 04:41:49;;;;;;;4.22;1.00;;;9.70;99.90;;;;;;5006023;28;20347;-75
2023/11/02 04:44:17;;;;;;;8.27;1.20;;;9.70;99.90;;;;;;4997924;28;20050;-74
2023/11/02 04:46:43;;;;;;;11.25;2.50;;;9.70;99.90;;;;;;4978469;28;20084;-75
2023/11/02 04:49:10;;;;;;;12.20;2.50;;;9.80;99.90;;;;;;4988783;28;20135;-75
2023/11/02 04:51:37;;;;;;;13.25;1.98;;;9.80;99.90;;;;;;4994212;28;20105;-75
2023/11/02 04:54:04;;;;;;;9.80;2.20;;;9.90;99.90;;;;;;4997806;28;20050;-75
2023/11/02 04:56:31;;;;;;;12.88;1.98;;;9.90;99.90;;;;;;5014955;28;20056;-76
2023/11/02 04:58:57;;;;;;;11.63;2.35;;;9.90;99.90;;;;;;5009000;28;20049;-75
2023/11/02 05:01:24;;;;;;;28.35;4.65;;;9.90;99.90;;;;;;5013503;28;20034;-77
2023/11/02 05:03:55;;;;;;;15.32;2.72;;;9.90;99.90;;;;;;5013662;28;20050;-77
2023/11/02 05:06:22;;;;;;;19.42;2.78;;;10.00;99.90;;;;;;5016609;28;20073;-77
2023/11/02 05:08:49;;;;;;;21.73;3.00;;;10.10;99.90;;;;;;5011596;28;20053;-76
2023/11/02 05:11:16;;;;;;;24.55;4.30;;;10.10;99.90;;;;;;5028205;28;20049;-77
2023/11/02 05:13:42;;;;;;;28.13;3.70;;;10.20;99.90;;;;;;5031497;28;20046;-77
2023/11/02 05:16:09;;;;;;;18.00;3.72;;;10.20;99.90;;;;;;5001226;28;20062;-76
2023/11/02 05:18:36;;;;;;;12.35;2.55;;;10.30;99.90;;;;;;5001490;28;20050;-77
2023/11/02 05:21:03;;;;;;;19.90;3.28;;;10.30;99.90;;;;;;4999406;28;20053;-76
2023/11/02 05:23:30;;;;;;;27.17;3.42;;;10.30;99.90;;;;;;4999046;28;20041;-76
2023/11/02 05:25:56;;;;;;;19.98;3.03;;;10.30;99.90;;;;;;5004540;28;20042;-77
2023/11/02 05:28:23;;;;;;;18.60;3.10;;;10.30;99.90;;;;;;4991669;28;20042;-77
2023/11/02 05:30:50;;;;;;;14.23;2.60;;;10.30;99.90;;;;;;4996727;28;20583;-77
2023/11/02 05:33:17;;;;;;;19.52;4.30;;;10.30;99.90;;;;;;4995004;28;20109;-76
2023/11/02 05:35:43;;;;;;;21.88;4.07;;;10.30;99.90;;;;;;4991799;28;20053;-76
2023/11/02 05:38:10;;;;;;;18.73;2.83;;;10.30;99.90;;;;;;4993140;28;20198;-76
2023/11/02 05:40:37;;;;;;;19.17;3.13;;;10.30;99.90;;;;;;5004571;28;20096;-76
2023/11/02 05:43:04;;;;;;;22.45;3.42;;;10.30;99.90;;;;;;5000200;28;20085;-76
2023/11/02 05:45:30;;;;;;;18.52;2.60;;;10.40;99.90;;;;;;4990139;28;20041;-76
2023/11/02 05:47:57;;;;;;;20.63;4.55;;;10.40;99.90;;;;;;4994746;28;20048;-76
2023/11/02 05:50:25;;;;;;;8.40;1.73;;;10.30;99.90;;;;;;4991885;28;20559;-76
2023/11/02 05:52:52;;;;;;;13.20;2.08;;;10.40;99.90;;;;;;4997738;28;20498;-76
2023/11/02 05:55:19;;;;;;;11.32;1.75;;;10.30;99.90;;;;;;5003668;28;20057;-77
2023/11/02 05:57:46;;;;;;;12.73;3.00;;;10.30;99.90;;;;;;5005980;28;20089;-77
2023/11/02 06:00:13;;;;;;;13.25;3.33;;;10.30;99.90;;;;;;4990387;28;20050;-76
2023/11/02 06:02:40;;;;;;;12.38;2.47;;;10.40;99.90;;;;;;4999141;28;20046;-76
2023/11/02 06:05:08;;;;;;;8.13;1.65;;;10.40;99.90;;;;;;4997806;28;20110;-77
2023/11/02 06:07:35;;;;;;;8.68;1.90;;;10.40;99.90;;;;;;5002082;28;20053;-74
2023/11/02 06:10:03;;;;;;;5.65;1.60;;;10.40;99.90;;;;;;5002401;28;20045;-76
2023/11/02 06:12:30;;;;;;;10.50;1.90;;;10.40;99.90;;;;;;5007100;28;20054;-77
2023/11/02 06:14:57;;;;;;;5.57;1.98;;;10.40;99.90;;;;;;5007115;28;20478;-77
2023/11/02 06:17:24;;;;;;;9.85;1.65;;;10.40;99.90;;;;;;5008867;28;20042;-77
2023/11/02 06:19:51;;;;;;;10.85;1.92;;;10.40;99.90;;;;;;5004634;28;20559;-78
2023/11/02 06:22:18;;;;;;;12.75;1.58;;;10.50;99.90;;;;;;4995648;28;20045;-77
2023/11/02 06:24:45;;;;;;;13.27;1.77;;;10.50;99.90;;;;;;5014648;28;20258;-74
2023/11/02 06:27:12;;;;;;;12.77;1.85;;;10.50;99.90;;;;;;5001045;28;20046;-77
2023/11/02 06:29:39;;;;;;;6.90;1.20;;;10.50;99.90;;;;;;5008438;28;20051;-78
2023/11/02 06:32:06;;;;;;;7.75;1.45;;;10.50;99.90;;;;;;5014846;28;20055;-75
2023/11/02 06:34:37;;;;;;;6.75;2.03;;;10.50;99.90;;;;;;5019345;28;20026;-77
2023/11/02 06:37:06;;;;;;;8.98;1.48;;;10.60;99.90;;;;;;5015613;28;20050;-78
2023/11/02 06:39:34;;;;;;;5.90;1.13;;;10.60;99.90;;;;;;5001146;28;20051;-77
2023/11/02 06:42:01;;;;;;;13.43;2.83;;;10.60;99.90;;;;;;4995499;28;20056;-78
2023/11/02 06:44:28;;;;;;;19.95;2.47;;;10.60;99.90;;;;;;5009764;28;20066;-78
2023/11/02 06:46:55;;;;;;;6.60;1.33;;;10.60;99.90;;;;;;4999578;28;20054;-80
2023/11/02 06:49:22;;;;;;;4.47;1.00;;;10.60;99.90;;;;;;5001790;28;20381;-79
2023/11/02 06:51:50;;;;;;;5.85;1.60;;;10.60;99.90;;;;;;4993146;28;20137;-78
2023/11/02 06:54:17;;;;;;;6.93;1.35;;;10.60;99.90;;;;;;5000703;28;20545;-77
2023/11/02 06:56:44;;;;;;;13.07;2.15;;;10.70;99.90;;;;;;4996175;28;20088;-78
2023/11/02 06:59:11;;;;;;;12.38;2.08;;;10.70;99.90;;;;;;5006654;28;20089;-76
2023/11/02 07:01:37;;;;;;;10.73;1.83;;;10.70;99.90;;;;;;5005869;28;20038;-78
2023/11/02 07:04:04;;;;;;;10.27;1.95;;;10.70;99.90;;;;;;4999488;28;20473;-77
2023/11/02 07:06:31;;;;;;;18.13;2.42;;;10.70;99.90;;;;;;4989595;28;20037;-76
2023/11/02 07:08:58;;;;;;;6.88;2.20;;;10.70;99.90;;;;;;4651277;28;10000312;-77
2023/11/02 07:11:25;;;;;;;11.38;2.63;;;10.80;99.90;;;;;;4995156;28;20559;-76
2023/11/02 07:13:52;;;;;;;11.50;2.25;;;10.80;99.90;;;;;;4993550;28;20051;-76
2023/11/02 07:16:18;;;;;;;16.52;2.90;;;10.80;99.90;;;;;;5003082;28;20081;-76
2023/11/02 07:18:45;;;;;;;11.23;2.35;;;10.80;99.90;;;;;;4993648;28;20046;-77
2023/11/02 07:21:12;;;;;;;13.98;2.33;;;10.90;99.90;;;;;;4995772;28;20116;-77
2023/11/02 07:23:39;;;;;;;14.27;3.13;;;10.90;99.90;;;;;;5001647;28;20054;-77
2023/11/02 07:26:08;;;;;;;20.45;4.72;;;10.90;99.90;;;;;;4999981;28;20055;-75
2023/11/02 07:28:35;;;;;;;13.25;2.40;;;10.90;99.90;;;;;;4994345;28;20077;-77
2023/11/02 07:31:03;;;;;;;14.02;2.58;;;10.90;99.90;;;;;;5003117;28;20050;-79
2023/11/02 07:33:31;;;;;;;16.30;3.00;;;10.90;99.90;;;;;;5006444;28;20041;-75
2023/11/02 07:35:58;;;;;;;15.15;3.17;;;10.90;99.90;;;;;;4998152;28;20054;-75
2023/11/02 07:38:25;;;;;;;12.57;3.90;;;10.80;99.90;;;;;;4999463;28;20054;-72
2023/11/02 07:40:51;;;;;;;16.65;2.95;;;10.90;99.90;;;;;;4989343;28;20085;-71
2023/11/02 07:43:18;;;;;;;14.88;2.38;;;10.80;99.90;;;;;;4993066;28;20283;-72
2023/11/02 07:45:45;;;;;;;10.75;2.20;;;10.80;99.90;;;;;;4996365;28;20053;-71
2023/11/02 07:48:12;;;;;;;20.77;2.70;;;10.80;99.90;;;;;;4997239;28;20060;-71
2023/11/02 07:50:39;;;;;;;11.50;2.30;;;10.80;99.90;;;;;;5002225;28;20561;-71
2023/11/02 07:53:06;;;;;;;11.50;2.53;;;10.90;99.90;;;;;;4998452;28;20481;-71
2023/11/02 07:55:33;;;;;;;21.02;2.53;;;10.90;99.90;;;;;;5003156;28;20108;-71
2023/11/02 07:58:00;;;;;;;14.02;2.83;;;10.80;99.90;;;;;;4993568;28;20104;-71
2023/11/02 08:00:27;;;;;;;9.82;2.03;;;10.80;99.90;;;;;;5002110;28;20073;-71
2023/11/02 08:02:54;;;;;;;13.45;2.20;;;10.80;99.90;;;;;;4986703;28;20065;-72
2023/11/02 08:05:21;;;;;;;11.10;2.25;;;10.80;99.90;;;;;;4995111;28;20413;-71
2023/11/02 08:07:48;;;;;;;12.55;2.50;;;10.80;99.90;;;;;;4996024;28;20575;-70
2023/11/02 08:10:15;;;;;;;8.30;2.50;;;10.90;99.90;;;;;;4992467;28;20051;-71
2023/11/02 08:12:42;;;;;;;9.80;2.40;;;10.90;99.90;;;;;;4994682;28;20074;-71
2023/11/02 08:15:09;;;;;;;9.20;2.38;;;10.90;99.90;;;;;;5004777;28;20045;-70
2023/11/02 08:17:36;;;;;;;16.17;3.78;;;10.90;99.90;;;;;;4994998;28;20431;-71
2023/11/02 08:20:07;;;;;;;12.95;1.98;;;10.90;99.90;;;;;;4980210;28;20046;-70
2023/11/02 08:22:34;;;;;;;8.15;2.05;;;11.00;99.90;;;;;;4999731;28;20050;-70
2023/11/02 08:25:01;;;;;;;12.60;2.72;;;10.90;99.90;;;;;;5002436;28;20077;-71
2023/11/02 08:27:28;;;;;;;7.78;2.20;;;11.00;99.90;;;;;;5000050;28;20054;-71
2023/11/02 08:29:55;;;;;;;10.48;2.90;;;11.10;99.90;;;;;;5005776;28;20540;-72
2023/11/02 08:32:22;;;;;;;12.05;2.60;;;11.00;99.90;;;;;;5002411;28;20130;-70
2023/11/02 08:34:49;;;;;;;11.63;2.92;;;11.00;99.90;;;;;;5005438;28;20042;-70
2023/11/02 08:37:15;;;;;;;11.45;2.47;;;11.00;99.90;;;;;;5003047;28;20057;-70
2023/11/02 08:39:42;;;;;;;9.63;1.90;;;11.00;99.90;;;;;;4988233;28;20280;-71
2023/11/02 08:42:10;;;;;;;18.92;3.35;;;11.00;99.90;;;;;;4984301;28;20161;-71
2023/11/02 08:44:40;;;;;;;14.07;2.88;;;11.00;99.90;;;;;;4986478;28;20114;-72
2023/11/02 08:47:11;;;;;;;15.65;3.28;;;11.00;99.90;;;;;;4989951;28;20050;-71
2023/11/02 08:49:39;;;;;;;11.80;2.70;;;11.00;99.90;;;;;;4998336;28;20054;-70
2023/11/02 08:52:06;;;;;;;13.10;2.33;;;10.90;99.90;;;;;;5003183;28;20485;-71
2023/11/02 08:54:33;;;;;;;11.45;2.75;;;10.90;99.90;;;;;;4998161;28;20050;-71
2023/11/02 08:57:00;;;;;;;8.68;2.13;;;10.90;99.90;;;;;;4998788;28;20042;-71
2023/11/02 08:59:27;;;;;;;12.55;2.40;;;10.90;99.90;;;;;;4993719;28;20089;-71
2023/11/02 09:01:54;;;;;;;12.13;3.13;;;10.90;99.90;;;;;;4989627;28;20058;-71
2023/11/02 09:04:22;;;;;;;10.48;2.70;;;10.90;99.90;;;;;;5003021;28;20038;-72
2023/11/02 09:06:49;;;;;;;16.80;3.20;;;11.00;99.90;;;;;;5008577;28;20050;-72
2023/11/02 09:09:15;;;;;;;13.30;5.05;;;11.10;99.90;;;;;;4996360;28;20037;-70
2023/11/02 09:11:42;;;;;;;15.15;3.90;;;11.10;99.90;;;;;;4998851;28;20537;-71
2023/11/02 09:14:09;;;;;;;11.43;3.50;;;11.10;99.90;;;;;;4993877;28;20129;-70
2023/11/02 09:16:36;;;;;;;16.52;5.78;;;11.30;99.90;;;;;;5000851;28;20124;-71
2023/11/02 09:19:04;;;;;;;5.95;3.40;;;11.20;99.90;;;;;;4994433;28;20057;-71
2023/11/02 09:21:31;;;;;;;9.23;4.85;;;11.30;99.90;;;;;;5004952;28;20084;-70
2023/11/02 09:23:58;;;;;;;13.65;3.92;;;11.30;99.90;;;;;;5006072;28;20053;-71
2023/11/02 09:26:25;;;;;;;10.13;4.22;;;11.40;99.90;;;;;;5002703;28;20549;-70
2023/11/02 09:28:52;;;;;;;11.70;4.78;;;11.30;99.90;;;;;;4993999;28;20089;-70
2023/11/02 09:31:18;;;;;;;19.45;5.68;;;11.30;99.90;;;;;;5006202;28;20084;-70
2023/11/02 09:33:45;;;;;;;10.32;3.97;;;11.20;99.90;;;;;;5001272;28;20371;-71
2023/11/02 09:36:12;;;;;;;8.43;3.53;;;11.20;99.90;;;;;;5005804;28;20361;-70
2023/11/02 09:38:39;;;;;;;11.95;3.72;;;11.10;99.90;;;;;;5002738;28;20078;-69
2023/11/02 09:41:06;;;;;;;7.18;4.15;;;11.20;99.90;;;;;;4984843;28;20092;-70
2023/11/02 09:43:33;;;;;;;9.98;2.97;;;11.10;99.90;;;;;;5009098;28;20050;-69
2023/11/02 09:46:01;;;;;;;9.75;3.63;;;11.10;99.90;;;;;;4998871;28;20046;-70
2023/11/02 09:48:28;;;;;;;10.27;3.35;;;11.10;99.90;;;;;;5006684;28;20128;-70
2023/11/02 09:50:57;;;;;;;4.35;2.45;;;11.00;99.90;;;;;;5008021;28;20042;-71
2023/11/02 09:53:25;;;;;;;9.77;2.65;;;11.00;99.90;;;;;;4998620;28;20089;-70
2023/11/02 09:55:52;;;;;;;7.07;2.47;;;11.00;99.90;;;;;;5014469;28;20046;-70
2023/11/02 09:58:19;;;;;;;4.95;2.50;;;11.00;99.90;;;;;;4994375;28;20640;-70
2023/11/02 10:00:46;;;;;;;6.55;2.03;;;11.00;99.90;;;;;;4989511;28;20104;-71
2023/11/02 10:03:13;;;;;;;8.82;2.50;;;10.90;99.90;;;;;;5000919;28;20077;-69
2023/11/02 10:05:40;;;;;;;7.20;2.75;;;10.90;99.90;;;;;;4990343;28;20125;-69
2023/11/02 10:08:08;;;;;;;6.70;2.22;;;10.90;99.90;;;;;;5004411;28;20058;-69
2023/11/02 10:10:34;;;;;;;7.30;2.03;;;10.80;99.90;;;;;;4999531;28;20042;-70
2023/11/02 10:13:01;;;;;;;7.32;1.30;;;10.90;99.90;;;;;;4994821;28;20059;-70
2023/11/02 10:15:31;;;;;;;7.93;2.03;;;10.80;99.90;;;;;;4993327;28;20065;-69
2023/11/02 10:17:58;;;;;;;3.58;1.30;;;10.90;99.90;;;;;;4993913;28;20050;-69
2023/11/02 10:20:25;;;;;;;5.13;1.48;;;10.90;99.90;;;;;;4990634;28;20062;-70
2023/11/02 10:23:00;;;;;;;7.75;1.20;;;10.90;99.90;;;;;;5004100;28;20137;-70
2023/11/02 10:25:28;;;;;;;2.47;1.17;;;10.80;99.90;;;;;;4992071;28;20038;-71
2023/11/02 10:27:56;;;;;;;2.33;1.05;;;10.80;99.90;;;;;;4995664;28;20051;-71
2023/11/02 10:30:24;;;;;;;3.30;1.20;;;10.80;99.90;;;;;;5010274;28;20070;-70
2023/11/02 10:32:52;;;;;;;3.40;1.17;;;10.80;99.90;;;;;;4998042;28;20322;-69
2023/11/02 10:35:19;;;;;;;3.28;1.33;;;10.80;99.90;;;;;;5012619;28;20073;-69
2023/11/02 10:37:46;;;;;;;5.72;1.40;;;10.80;99.90;;;;;;4989903;28;20050;-69
2023/11/02 10:40:12;;;;;;;4.10;1.52;;;10.80;99.90;;;;;;5010770;28;20104;-70
2023/11/02 10:42:39;;;;;;;7.47;1.30;;;10.80;99.90;;;;;;5007405;28;20081;-69
2023/11/02 10:45:06;;;;;;;7.47;1.33;;;10.80;99.90;;;;;;5000295;28;20074;-70
2023/11/02 10:47:34;;;;;;;5.82;1.50;;;10.80;99.90;;;;;;4998882;28;20178;-69
2023/11/02 10:50:01;;;;;;;1.83;0.90;;;10.80;99.90;;;;;;5004931;28;20050;-70
2023/11/02 10:52:46;;;;;;;8.05;1.77;;;10.80;99.90;;;;;;5006957;28;20046;-69
2023/11/02 10:55:41;;;;;;;4.47;1.17;;;10.70;99.90;;;;;;5006628;28;20105;-70
2023/11/02 10:58:08;;;;;;;7.07;1.33;;;10.70;99.90;;;;;;5002421;28;20233;-70
2023/11/02 11:00:35;;;;;;;5.35;1.60;;;10.70;99.90;;;;;;4980351;28;20473;-69
2023/11/02 11:03:02;;;;;;;4.22;1.00;;;10.80;99.90;;;;;;4657603;28;9999933;-69
2023/11/02 11:05:29;;;;;;;6.60;2.17;;;10.80;99.90;;;;;;5007154;28;20046;-71
2023/11/02 11:08:02;;;;;;;5.35;1.63;;;10.80;99.90;;;;;;5000652;28;20104;-71
2023/11/02 11:10:30;;;;;;;3.33;1.30;;;10.80;99.90;;;;;;4993960;28;20057;-71
2023/11/02 11:12:56;;;;;;;5.40;1.13;;;10.70;99.90;;;;;;4996174;28;20065;-71
2023/11/02 11:15:25;;;;;;;8.60;1.70;;;10.70;99.90;;;;;;5003602;28;20544;-70
2023/11/02 11:17:52;;;;;;;6.65;1.80;;;10.70;99.90;;;;;;5004782;28;20049;-70
2023/11/02 11:20:19;;;;;;;8.57;1.77;;;10.70;99.90;;;;;;5002307;28;20054;-71
2023/11/02 11:22:46;;;;;;;2.83;1.10;;;10.60;99.90;;;;;;5010858;28;20057;-70
2023/11/02 11:25:14;;;;;;;3.13;1.05;;;10.60;99.90;;;;;;5002155;28;20046;-70
2023/11/02 11:27:40;;;;;;;6.25;1.77;;;10.50;99.90;;;;;;5012057;28;20045;-69
2023/11/02 11:30:20;;;;;;;5.95;2.20;;;10.60;99.90;;;;;;5001158;28;20446;-69
2023/11/02 11:32:47;;;;;;;2.28;0.98;;;10.70;99.90;;;;;;5010625;28;20473;-70
2023/11/02 11:35:17;;;;;;;1.90;0.90;;;10.60;99.90;;;;;;5001232;28;20054;-71
2023/11/02 11:37:49;;;;;;;4.05;1.25;;;10.60;99.90;;;;;;4993992;28;20114;-70
2023/11/02 11:40:19;;;;;;;4.90;1.00;;;10.50;99.90;;;;;;5001771;28;20109;-71
2023/11/02 11:43:04;;;;;;;1.60;0.40;;;10.40;99.90;;;;;;5008616;28;20042;-71
2023/11/02 11:45:32;;;;;;;0.80;0.50;;;10.40;99.90;;;;;;5002147;28;20145;-70
2023/11/02 11:48:00;;;;;;;3.25;0.70;;;10.40;99.90;;;;;;5000207;28;20058;-70
2023/11/02 11:50:45;;;;;;;8.20;1.42;;;10.40;99.90;;;;;;5002662;28;20049;-71
2023/11/02 11:53:23;;;;;;;5.97;0.82;;;10.40;99.90;;;;;;4995328;28;20422;-68
2023/11/02 11:55:50;;;;;;;4.18;0.80;;;10.40;99.90;;;;;;5002078;28;20046;-69
2023/11/02 11:58:38;;;;;;;1.67;0.60;;;10.40;99.90;;;;;;4992295;28;20058;-69
2023/11/02 12:01:04;;;;;;;5.97;0.82;;;10.40;99.90;;;;;;5010947;28;20054;-70
2023/11/02 12:03:34;;;;;;;4.00;1.23;;;10.40;99.90;;;;;;5011415;28;20050;-68
2023/11/02 12:06:02;;;;;;;4.05;0.80;;;10.40;99.90;;;;;;5003583;28;20050;-69
2023/11/02 12:08:31;;;;;;;4.75;1.40;;;10.40;99.90;;;;;;5010009;28;20046;-69
2023/11/02 12:10:58;;;;;;;3.72;1.27;;;10.50;99.90;;;;;;4986579;28;20058;-69
2023/11/02 12:13:25;;;;;;;3.20;1.13;;;10.40;99.90;;;;;;5010411;28;20180;-69
2023/11/02 12:16:00;;;;;;;5.20;0.85;;;10.50;99.90;;;;;;5005759;28;20050;-69
2023/11/02 12:18:33;;;;;;;4.57;1.75;;;10.40;99.90;;;;;;5009199;28;20050;-69
2023/11/02 12:21:04;;;;;;;1.52;0.77;;;10.40;99.90;;;;;;5006386;28;20505;-70
2023/11/02 12:23:38;;;;;;;3.28;0.90;;;10.30;99.90;;;;;;5010151;28;20436;-69
2023/11/02 12:26:06;;;;;;;3.00;1.15;;;10.40;99.90;;;;;;5003922;28;20049;-69
2023/11/02 12:28:42;;;;;;;3.95;0.80;;;10.40;99.90;;;;;;5000224;28;20459;-69
2023/11/02 12:31:34;;;;;;;3.08;0.90;;;10.40;99.90;;;;;;5002370;28;20046;-68
2023/11/02 12:34:10;;;;;;;3.15;0.93;;;10.50;99.90;;;;;;5009507;28;20058;-69
2023/11/02 12:36:41;;;;;;;3.42;0.70;;;10.60;99.90;;;;;;4999315;28;20140;-70
2023/11/02 12:39:11;;;;;;;4.38;1.02;;;10.60;99.90;;;;;;5009747;28;20064;-70
2023/11/02 12:41:38;;;;;;;3.60;1.00;;;10.60;99.90;;;;;;4996472;28;20128;-70
2023/11/02 12:44:10;;;;;;;5.45;0.98;;;10.70;99.90;;;;;;5007421;28;20053;-69
2023/11/02 12:46:40;;;;;;;1.90;0.60;;;10.70;99.90;;;;;;4998155;28;20397;-69
2023/11/02 12:49:20;;;;;;;3.97;0.82;;;10.70;99.90;;;;;;5007599;28;20050;-69
2023/11/02 12:51:50;;;;;;;2.13;1.23;;;10.70;99.90;;;;;;4998743;28;20054;-68
2023/11/02 12:54:17;;;;;;;4.10;1.40;;;10.70;99.90;;;;;;5008592;28;20145;-69
2023/11/02 12:56:45;;;;;;;4.15;1.13;;;10.70;99.90;;;;;;4995667;28;20046;-69
2023/11/02 12:59:12;;;;;;;4.32;1.05;;;10.70;99.90;;;;;;4997810;28;20041;-69
2023/11/02 13:01:52;;;;;;;3.42;0.90;;;10.70;99.90;;;;;;5008093;28;20041;-69